Time;durP1;ratioP1;P1;durP2;ratioP2;P2;SDS_P1;SDS_P2;PMS_P1;PMS_P2;Temp;Humidity;BMP_temperature;BMP_pressure;BME280_temperature;BME280_humidity;BME280_pressure;Samples;Min_cycle;Max_cycle;Signal;HPM_P1;HPM_P2
2021/06/30 00:02:08;;;;;;;;;10.25;10.25;;;;;17.38;70.31;100628.56;4974643;28;45276;-59
2021/06/30 00:04:33;;;;;;;;;9.75;8.25;;;;;17.39;70.35;100624.09;4976663;28;45343;-58
2021/06/30 00:06:59;;;;;;;;;10.75;8.75;;;;;17.39;70.78;100630.22;4974268;28;45387;-58
2021/06/30 00:09:24;;;;;;;;;10.75;10.75;;;;;17.39;70.48;100627.56;4976806;27;45402;-59
2021/06/30 00:11:50;;;;;;;;;9.50;9.25;;;;;17.41;70.63;100622.09;4973934;28;57776;-59
2021/06/30 00:14:15;;;;;;;;;11.50;8.75;;;;;17.40;70.47;100623.09;4974401;28;45321;-60
2021/06/30 00:16:41;;;;;;;;;10.25;8.00;;;;;17.41;70.87;100624.72;4974234;28;45796;-58
2021/06/30 00:19:08;;;;;;;;;14.25;11.25;;;;;17.41;70.46;100625.53;4976026;27;45878;-59
2021/06/30 00:21:33;;;;;;;;;10.50;10.50;;;;;17.42;70.42;100619.22;4974573;28;45275;-60
2021/06/30 00:23:58;;;;;;;;;11.00;10.00;;;;;17.43;70.37;100614.75;4974130;28;46875;-60
2021/06/30 00:26:24;;;;;;;;;11.50;10.75;;;;;17.42;70.45;100619.22;4973897;28;52893;-59
2021/06/30 00:28:49;;;;;;;;;10.25;9.00;;;;;17.40;70.52;100612.47;4972970;28;45357;-59
2021/06/30 00:31:16;;;;;;;;;10.50;10.00;;;;;17.42;70.64;100610.44;4973036;28;49538;-59
2021/06/30 00:33:42;;;;;;;;;14.25;10.00;;;;;17.42;70.69;100618.41;4974361;28;45473;-59
2021/06/30 00:36:07;;;;;;;;;11.00;10.25;;;;;17.40;70.50;100617.78;4974139;28;45431;-59
2021/06/30 00:38:32;;;;;;;;;10.00;9.00;;;;;17.39;70.65;100610.81;4974441;28;45319;-59
2021/06/30 00:40:58;;;;;;;;;9.75;8.75;;;;;17.38;70.54;100619.78;4973648;28;56954;-60
2021/06/30 00:43:23;;;;;;;;;9.75;9.00;;;;;17.38;70.50;100617.94;4973618;28;59071;-60
2021/06/30 00:45:49;;;;;;;;;11.75;8.00;;;;;17.37;70.00;100612.81;4973403;28;63376;-59
2021/06/30 00:48:14;;;;;;;;;11.00;8.75;;;;;17.36;70.50;100606.66;4974136;28;45369;-59
2021/06/30 00:50:40;;;;;;;;;11.25;8.50;;;;;17.34;70.67;100606.84;4973531;28;57546;-58
2021/06/30 00:53:05;;;;;;;;;8.00;6.25;;;;;17.33;70.52;100609.69;4974126;28;45615;-59
2021/06/30 00:55:31;;;;;;;;;5.50;5.25;;;;;17.31;70.88;100607.22;4973517;28;57209;-58
2021/06/30 00:57:57;;;;;;;;;8.25;7.25;;;;;17.30;70.55;100605.56;4974067;28;45373;-60
2021/06/30 01:00:23;;;;;;;;;9.00;6.75;;;;;17.30;70.66;100608.22;4972814;28;45454;-59
2021/06/30 01:02:48;;;;;;;;;8.50;7.75;;;;;17.29;70.75;100606.56;4975720;28;58167;-59
2021/06/30 01:05:15;;;;;;;;;5.75;5.75;;;;;17.28;70.77;100606.72;4976070;28;60537;-58
2021/06/30 01:07:40;;;;;;;;;8.75;5.00;;;;;17.27;70.95;100611.22;4976883;28;45226;-60
2021/06/30 01:10:06;;;;;;;;;8.25;7.00;;;;;17.26;70.62;100612.22;4975926;28;60145;-59
2021/06/30 01:12:32;;;;;;;;;7.00;7.00;;;;;17.26;70.75;100612.22;4976864;28;45244;-58
2021/06/30 01:15:02;;;;;;;;;7.75;7.50;;;;;17.25;70.76;100615.88;4978134;28;45504;-59
2021/06/30 01:17:27;;;;;;;;;9.50;7.25;;;;;17.22;70.67;100604.81;4976776;28;45379;-59
2021/06/30 01:19:53;;;;;;;;;10.75;7.25;;;;;17.20;70.67;100607.63;4975617;28;66982;-59
2021/06/30 01:22:18;;;;;;;;;7.75;6.00;;;;;17.18;71.09;100606.97;4976135;28;62260;-59
2021/06/30 01:24:48;;;;;;;;;6.00;4.50;;;;;17.15;70.98;100604.69;4976428;28;45358;-59
2021/06/30 01:27:17;;;;;;;;;4.50;4.50;;;;;17.14;71.19;100608.34;4975313;28;46903;-60
2021/06/30 01:29:43;;;;;;;;;5.25;5.25;;;;;17.16;71.05;100606.34;4961429;28;45266;-59
2021/06/30 01:32:08;;;;;;;;;6.75;6.00;;;;;17.14;71.07;100603.03;4977379;27;45588;-59
2021/06/30 01:34:34;;;;;;;;;5.00;3.75;;;;;17.12;71.35;100600.56;4976279;28;46724;-59
2021/06/30 01:36:59;;;;;;;;;6.00;5.00;;;;;17.09;71.32;100595.59;4975887;28;61977;-59
2021/06/30 01:39:25;;;;;;;;;5.00;3.25;;;;;17.08;71.24;100604.56;4975681;28;65196;-59
2021/06/30 01:41:50;;;;;;;;;9.25;6.50;;;;;17.09;71.40;100602.72;4975177;28;45448;-59
2021/06/30 01:44:16;;;;;;;;;8.00;5.00;;;;;17.08;71.55;100601.06;4977925;27;45277;-59
2021/06/30 01:46:41;;;;;;;;;7.50;6.00;;;;;17.07;71.11;100602.94;4976190;28;45633;-59
2021/06/30 01:49:07;;;;;;;;;7.00;6.00;;;;;17.06;71.21;100604.72;4975249;28;45637;-59
2021/06/30 01:51:33;;;;;;;;;8.75;7.00;;;;;17.06;71.15;100604.72;4975544;28;59704;-59
2021/06/30 01:53:59;;;;;;;;;8.25;7.00;;;;;17.04;71.23;100606.75;4976025;28;46108;-58
2021/06/30 01:56:25;;;;;;;;;12.00;8.00;;;;;17.02;71.28;100610.59;4976313;28;45296;-59
2021/06/30 01:59:01;;;;;;;;;8.00;5.50;;;;;16.99;71.36;100610.94;4976285;28;45367;-59
2021/06/30 02:01:26;;;;;;;;;7.00;7.00;;;;;16.94;71.08;100614.09;4976300;28;45439;-59
2021/06/30 02:03:54;;;;;;;;;7.75;7.00;;;;;16.92;71.63;100616.09;4975865;28;53429;-58
2021/06/30 02:06:19;;;;;;;;;10.75;6.00;;;;;16.90;71.68;100620.75;4975974;28;45293;-59
2021/06/30 02:08:45;;;;;;;;;6.75;5.00;;;;;16.89;71.56;100611.16;4975447;28;62880;-60
2021/06/30 02:11:10;;;;;;;;;10.25;7.75;;;;;16.89;72.01;100613.81;4976147;28;45516;-58
2021/06/30 02:13:35;;;;;;;;;7.00;6.00;;;;;16.87;71.66;100611.31;4974788;28;74462;-59
2021/06/30 02:16:01;;;;;;;;;7.00;5.00;;;;;16.87;71.79;100613.97;4975174;28;63936;-59
2021/06/30 02:18:26;;;;;;;;;9.50;8.25;;;;;16.87;71.32;100613.16;4976060;28;45598;-59
2021/06/30 02:20:51;;;;;;;;;7.00;6.00;;;;;16.83;71.46;100612.66;4975081;28;61479;-59
2021/06/30 02:23:17;;;;;;;;;10.25;6.75;;;;;16.81;71.18;100616.50;4975675;28;45336;-59
2021/06/30 02:25:42;;;;;;;;;10.00;8.00;;;;;16.79;71.47;100626.47;4973607;28;68836;-59
2021/06/30 02:28:08;;;;;;;;;5.50;5.00;;;;;16.75;71.79;100621.50;4975018;28;65174;-59
2021/06/30 02:30:33;;;;;;;;;7.75;5.50;;;;;16.72;72.00;100624.50;4975128;28;57775;-59
2021/06/30 02:33:00;;;;;;;;;8.75;7.75;;;;;16.72;71.71;100626.31;4975394;28;46084;-59
2021/06/30 02:35:26;;;;;;;;;11.00;8.25;;;;;16.69;71.70;100627.50;4975620;28;45796;-59
2021/06/30 02:37:53;;;;;;;;;10.75;7.25;;;;;16.68;71.54;100631.16;4974363;28;45961;-58
2021/06/30 02:40:19;;;;;;;;;11.25;8.25;;;;;16.65;71.31;100631.50;4975643;28;45211;-58
2021/06/30 02:42:44;;;;;;;;;11.75;11.25;;;;;16.63;71.12;100638.81;4975595;28;46037;-59
2021/06/30 02:45:11;;;;;;;;;8.75;8.25;;;;;16.58;70.67;100641.16;4975113;28;58675;-58
2021/06/30 02:47:37;;;;;;;;;12.75;11.75;;;;;16.53;70.65;100635.53;4974497;28;45229;-59
2021/06/30 02:50:04;;;;;;;;;14.00;11.75;;;;;16.49;70.72;100644.84;4975550;28;45411;-59
2021/06/30 02:52:30;;;;;;;;;10.00;6.25;;;;;16.43;70.96;100644.53;4975364;28;46637;-58
2021/06/30 02:54:55;;;;;;;;;12.50;10.00;;;;;16.39;71.07;100645.06;4974248;28;45372;-59
2021/06/30 02:57:20;;;;;;;;;13.25;11.00;;;;;16.31;70.99;100643.28;4975527;28;45302;-59
2021/06/30 02:59:46;;;;;;;;;11.00;9.25;;;;;16.28;71.12;100649.72;4974770;28;59475;-59
2021/06/30 03:02:11;;;;;;;;;12.75;10.50;;;;;16.25;71.05;100651.91;4974404;28;69731;-59
2021/06/30 03:04:36;;;;;;;;;10.00;9.50;;;;;16.19;71.69;100652.56;4974157;28;69291;-59
2021/06/30 03:07:02;;;;;;;;;19.25;12.50;;;;;16.10;71.44;100647.28;4974254;28;68594;-58
2021/06/30 03:09:27;;;;;;;;;17.00;12.00;;;;;16.06;71.07;100643.31;4976689;28;45534;-59
2021/06/30 03:11:53;;;;;;;;;13.75;12.25;;;;;16.02;71.55;100644.66;4974219;28;67290;-59
2021/06/30 03:14:20;;;;;;;;;17.50;11.75;;;;;16.00;71.58;100638.69;4975057;28;45361;-58
2021/06/30 03:16:46;;;;;;;;;16.75;11.75;;;;;15.97;71.60;100654.94;4975193;27;45460;-60
2021/06/30 03:19:11;;;;;;;;;13.25;11.75;;;;;15.94;71.67;100652.63;4974932;28;45285;-59
2021/06/30 03:21:37;;;;;;;;;10.50;10.00;;;;;15.90;71.56;100654.78;4974439;28;64910;-59
2021/06/30 03:24:02;;;;;;;;;14.25;11.00;;;;;15.87;71.32;100653.31;4974054;28;56441;-59
2021/06/30 03:26:28;;;;;;;;;12.50;11.75;;;;;15.86;71.50;100656.09;4975242;28;45751;-59
2021/06/30 03:28:54;;;;;;;;;13.25;10.50;;;;;15.86;71.66;100653.44;4975033;28;45299;-59
2021/06/30 03:31:19;;;;;;;;;12.25;10.50;;;;;15.85;71.79;100651.78;4974857;28;45813;-58
2021/06/30 03:33:44;;;;;;;;;17.50;12.50;;;;;15.84;71.89;100650.97;4974146;28;64968;-59
2021/06/30 03:36:10;;;;;;;;;14.50;10.50;;;;;15.86;71.77;100653.44;4974442;28;55892;-59
2021/06/30 03:38:35;;;;;;;;;15.75;11.75;;;;;15.85;72.19;100655.28;4975042;28;45617;-59
2021/06/30 03:41:01;;;;;;;;;19.75;12.25;;;;;15.86;71.55;100659.63;4974659;28;46114;-57
2021/06/30 03:43:27;;;;;;;;;12.75;11.00;;;;;15.86;71.95;100658.75;4973645;28;45739;-59
2021/06/30 03:45:52;;;;;;;;;14.50;12.50;;;;;15.87;71.82;100655.13;4974837;28;45685;-59
2021/06/30 03:48:17;;;;;;;;;14.25;12.00;;;;;15.87;71.82;100655.97;4974992;28;45433;-59
2021/06/30 03:50:43;;;;;;;;;14.25;13.00;;;;;15.89;71.77;100657.63;4974032;28;63263;-59
2021/06/30 03:53:08;;;;;;;;;16.25;13.50;;;;;15.88;72.22;100670.03;4974538;28;47514;-60
2021/06/30 03:55:34;;;;;;;;;14.50;12.75;;;;;15.87;71.72;100666.56;4973916;28;65310;-59
2021/06/30 03:57:59;;;;;;;;;14.50;11.25;;;;;15.86;71.64;100659.63;4973933;28;65347;-60
2021/06/30 04:00:26;;;;;;;;;15.75;12.50;;;;;15.84;72.08;100669.53;4974743;28;45212;-59
2021/06/30 04:02:51;;;;;;;;;18.75;16.00;;;;;15.84;71.94;100663.38;4974476;28;45357;-59
2021/06/30 04:05:17;;;;;;;;;15.75;13.75;;;;;15.84;71.92;100661.56;4974437;28;45224;-58
2021/06/30 04:07:42;;;;;;;;;16.75;12.75;;;;;15.83;71.99;100665.22;4974410;28;45518;-58
2021/06/30 04:10:08;;;;;;;;;19.00;14.00;;;;;15.85;71.96;100657.94;4973717;28;68197;-58
2021/06/30 04:12:33;;;;;;;;;19.75;14.00;;;;;15.84;71.88;100660.72;4974544;28;45315;-59
2021/06/30 04:14:58;;;;;;;;;18.25;15.00;;;;;15.84;72.25;100663.38;4973616;28;66117;-59
2021/06/30 04:17:24;;;;;;;;;18.00;14.75;;;;;15.81;72.16;100664.56;4973637;28;65805;-59
2021/06/30 04:19:49;;;;;;;;;17.75;14.50;;;;;15.83;72.23;100659.91;4974056;28;45789;-58
2021/06/30 04:22:15;;;;;;;;;20.25;14.75;;;;;15.85;72.07;100662.38;4973501;28;63949;-58
2021/06/30 04:24:40;;;;;;;;;18.75;12.75;;;;;15.84;72.35;100668.69;4973910;28;52415;-58
2021/06/30 04:27:05;;;;;;;;;19.50;15.75;;;;;15.86;72.74;100669.34;4973821;28;60437;-59
2021/06/30 04:29:31;;;;;;;;;18.00;11.00;;;;;15.86;72.48;100667.56;4975235;27;67732;-58
2021/06/30 04:31:56;;;;;;;;;16.25;13.00;;;;;15.87;72.25;100666.56;4974227;28;45298;-59
2021/06/30 04:34:21;;;;;;;;;18.75;13.00;;;;;15.92;72.29;100670.50;4973576;28;61917;-59
2021/06/30 04:36:47;;;;;;;;;13.00;11.50;;;;;15.92;72.32;100670.50;4970850;28;57201;-59
2021/06/30 04:39:15;;;;;;;;;17.00;15.25;;;;;15.94;72.45;100665.88;4972823;28;75594;-58
2021/06/30 04:41:40;;;;;;;;;15.75;10.75;;;;;15.96;72.43;100670.03;4974152;28;45443;-59
2021/06/30 04:44:05;;;;;;;;;16.25;12.00;;;;;15.96;72.29;100670.03;4974235;28;45244;-58
2021/06/30 04:46:31;;;;;;;;;16.50;13.75;;;;;15.98;72.04;100669.84;4973815;28;45344;-58
2021/06/30 04:48:56;;;;;;;;;15.50;12.75;;;;;15.97;72.11;100671.69;4976120;28;45941;-58
2021/06/30 04:51:23;;;;;;;;;13.25;12.00;;;;;15.98;72.17;100680.44;4972904;28;71582;-58
2021/06/30 04:53:51;;;;;;;;;14.25;13.25;;;;;15.99;71.96;100684.75;4973997;28;45322;-58
2021/06/30 04:56:16;;;;;;;;;11.50;11.50;;;;;15.99;72.38;100677.63;4973864;28;45464;-60
2021/06/30 04:58:42;;;;;;;;;14.75;11.50;;;;;16.00;72.22;100681.09;4972869;28;65437;-57
2021/06/30 05:01:07;;;;;;;;;14.75;12.00;;;;;16.01;72.02;100682.75;4971869;28;63981;-61
2021/06/30 05:03:32;;;;;;;;;11.25;10.75;;;;;16.00;72.00;100681.09;4974093;28;45268;-60
2021/06/30 05:05:58;;;;;;;;;13.25;11.00;;;;;15.99;72.24;100682.94;4973045;28;61330;-60
2021/06/30 05:08:23;;;;;;;;;12.75;9.50;;;;;16.00;72.24;100681.94;4973355;28;53288;-60
2021/06/30 05:10:52;;;;;;;;;13.00;11.00;;;;;15.99;71.95;100682.09;4973462;28;45367;-60
2021/06/30 05:13:17;;;;;;;;;9.50;8.75;;;;;15.99;72.00;100682.09;4973672;28;45493;-59
2021/06/30 05:15:43;;;;;;;;;13.50;12.00;;;;;15.96;72.01;100680.63;4972800;28;64414;-60
2021/06/30 05:18:09;;;;;;;;;9.75;8.75;;;;;15.96;71.85;100691.22;4972139;28;45338;-59
2021/06/30 05:20:34;;;;;;;;;11.50;8.75;;;;;15.94;71.66;100684.41;4973085;28;45331;-60
2021/06/30 05:22:59;;;;;;;;;10.00;8.00;;;;;15.95;72.06;100694.03;4972222;28;62739;-59
2021/06/30 05:25:26;;;;;;;;;9.25;7.50;;;;;15.94;72.38;100697.66;4972327;28;55440;-59
2021/06/30 05:27:51;;;;;;;;;9.75;9.00;;;;;15.94;72.25;100693.22;4973127;28;46233;-60
2021/06/30 05:30:17;;;;;;;;;9.75;8.00;;;;;15.92;71.89;100697.84;4973392;28;45264;-59
2021/06/30 05:32:42;;;;;;;;;9.50;7.75;;;;;15.88;72.03;100693.88;4973493;28;45429;-59
2021/06/30 05:35:08;;;;;;;;;6.50;5.75;;;;;15.86;71.88;100695.84;4973423;28;45517;-59
2021/06/30 05:37:33;;;;;;;;;10.00;8.25;;;;;15.85;72.04;100699.47;4974248;28;46342;-60
2021/06/30 05:39:59;;;;;;;;;8.25;6.25;;;;;15.84;71.93;100698.66;4973071;28;45232;-59
2021/06/30 05:42:25;;;;;;;;;8.50;6.00;;;;;15.82;71.70;100705.94;4973338;28;45219;-59
2021/06/30 05:44:50;;;;;;;;;4.25;4.00;;;;;15.81;72.07;100698.16;4973072;28;45435;-59
2021/06/30 05:47:15;;;;;;;;;8.75;6.50;;;;;15.78;71.93;100709.94;4972989;28;64044;-59
2021/06/30 05:49:41;;;;;;;;;10.50;6.50;;;;;15.77;72.06;100707.44;4976170;28;45252;-59
2021/06/30 05:52:06;;;;;;;;;6.00;5.25;;;;;15.75;71.69;100704.13;4975684;28;57664;-59
2021/06/30 05:54:31;;;;;;;;;7.25;5.75;;;;;15.72;71.62;100707.94;4975939;28;45620;-60
2021/06/30 05:56:57;;;;;;;;;5.25;5.25;;;;;15.70;71.90;100708.09;4975839;28;46000;-58
2021/06/30 05:59:22;;;;;;;;;7.75;4.25;;;;;15.66;71.30;100705.94;4975896;28;45316;-60
2021/06/30 06:01:48;;;;;;;;;5.25;4.50;;;;;15.63;71.94;100709.72;4975955;28;45342;-59
2021/06/30 06:04:13;;;;;;;;;5.25;4.75;;;;;15.58;71.66;100710.25;4975558;28;54597;-59
2021/06/30 06:06:39;;;;;;;;;5.25;5.25;;;;;15.57;71.69;100715.72;4975678;28;46069;-59
2021/06/30 06:09:04;;;;;;;;;4.50;3.25;;;;;15.52;71.91;100713.53;4975331;28;57855;-60
2021/06/30 06:11:29;;;;;;;;;5.75;3.50;;;;;15.52;71.75;100721.50;4975802;28;46547;-59
2021/06/30 06:13:55;;;;;;;;;5.00;5.00;;;;;15.51;72.07;100722.47;4975640;28;52298;-58
2021/06/30 06:16:21;;;;;;;;;5.25;4.50;;;;;15.51;72.04;100725.13;4975678;28;45347;-59
2021/06/30 06:18:47;;;;;;;;;8.50;7.25;;;;;15.49;72.28;100721.00;4975477;28;45399;-59
2021/06/30 06:21:13;;;;;;;;;4.50;4.50;;;;;15.48;72.35;100722.81;4976159;28;45225;-60
2021/06/30 06:23:38;;;;;;;;;5.75;4.00;;;;;15.47;72.21;100729.09;4975196;28;57695;-60
2021/06/30 06:26:03;;;;;;;;;6.00;5.00;;;;;15.44;71.83;100726.78;4975317;28;64301;-60
2021/06/30 06:28:33;;;;;;;;;7.25;5.75;;;;;15.43;71.98;100727.75;4975174;28;62384;-59
2021/06/30 06:31:03;;;;;;;;;9.50;5.25;;;;;15.42;72.03;100726.94;4974319;28;45439;-59
2021/06/30 06:33:28;;;;;;;;;6.50;4.00;;;;;15.41;71.82;100727.94;4975664;28;45615;-59
2021/06/30 06:35:54;;;;;;;;;4.50;4.50;;;;;15.41;72.34;100729.75;4975333;28;45202;-59
2021/06/30 06:38:19;;;;;;;;;4.00;4.00;;;;;15.40;71.98;100736.03;4974346;28;45388;-59
2021/06/30 06:40:45;;;;;;;;;4.50;4.50;;;;;15.38;72.15;100733.56;4975511;28;45238;-59
2021/06/30 06:43:10;;;;;;;;;4.50;4.50;;;;;15.37;72.24;100733.72;4974931;28;63613;-60
2021/06/30 06:45:36;;;;;;;;;4.75;4.00;;;;;15.38;72.05;100743.31;4974488;28;61990;-59
2021/06/30 06:48:01;;;;;;;;;6.00;5.25;;;;;15.36;72.14;100742.69;4975420;28;45193;-59
2021/06/30 06:50:27;;;;;;;;;6.75;6.00;;;;;15.36;72.52;100747.97;4975752;28;45253;-60
2021/06/30 06:52:52;;;;;;;;;5.25;5.25;;;;;15.36;72.08;100740.84;4974827;28;45395;-59
2021/06/30 06:55:18;;;;;;;;;4.25;4.25;;;;;15.37;72.62;100742.50;4974741;28;61616;-59
2021/06/30 06:57:44;;;;;;;;;5.25;3.50;;;;;15.38;72.44;100741.50;4975171;28;50152;-59
2021/06/30 07:00:09;;;;;;;;;7.00;6.00;;;;;15.39;72.44;100743.16;4974655;28;45480;-59
2021/06/30 07:02:35;;;;;;;;;8.50;5.75;;;;;15.42;72.82;100750.78;4975187;28;45448;-59
2021/06/30 07:05:00;;;;;;;;;6.50;5.25;;;;;15.42;72.27;100748.13;4974999;28;45406;-59
2021/06/30 07:07:26;;;;;;;;;6.50;5.75;;;;;15.44;72.01;100750.59;4974556;28;64550;-59
2021/06/30 07:09:51;;;;;;;;;4.75;4.75;;;;;15.45;72.29;100749.63;4974725;28;64212;-59
2021/06/30 07:12:16;;;;;;;;;7.25;5.50;;;;;15.47;71.71;100755.56;4974445;28;66849;-59
2021/06/30 07:14:42;;;;;;;;;7.25;6.00;;;;;15.48;71.44;100756.41;4975207;28;45895;-58
2021/06/30 07:17:07;;;;;;;;;5.75;5.00;;;;;15.49;71.81;100750.13;4975127;28;45240;-60
2021/06/30 07:19:33;;;;;;;;;7.00;5.00;;;;;15.48;71.69;100756.41;4974935;28;45846;-59
2021/06/30 07:21:58;;;;;;;;;6.50;5.50;;;;;15.49;71.56;100755.44;4974377;28;68159;-59
2021/06/30 07:24:24;;;;;;;;;7.50;6.25;;;;;15.50;71.23;100757.91;4974404;28;54214;-60
2021/06/30 07:26:49;;;;;;;;;7.25;5.50;;;;;15.49;70.90;100758.06;4972461;28;45416;-57
2021/06/30 07:29:14;;;;;;;;;5.25;4.75;;;;;15.48;70.95;100756.41;4973690;28;45389;-59
2021/06/30 07:31:40;;;;;;;;;5.00;4.50;;;;;15.48;71.33;100757.22;4973587;28;45445;-59
2021/06/30 07:34:05;;;;;;;;;6.00;4.50;;;;;15.48;71.08;100765.19;4972064;28;48012;-58
2021/06/30 07:36:31;;;;;;;;;5.50;5.50;;;;;15.51;71.19;100769.34;4972523;28;65022;-58
2021/06/30 07:38:56;;;;;;;;;8.25;7.25;;;;;15.54;71.15;100766.38;4973699;28;45363;-58
2021/06/30 07:41:21;;;;;;;;;7.75;6.00;;;;;15.57;71.39;100763.38;4972860;28;67351;-58
2021/06/30 07:43:47;;;;;;;;;8.25;5.50;;;;;15.63;71.47;100767.19;4973823;28;64445;-59
2021/06/30 07:46:12;;;;;;;;;6.25;6.25;;;;;15.66;71.75;100762.38;4974044;28;67316;-58
2021/06/30 07:48:37;;;;;;;;;10.50;6.75;;;;;15.70;72.13;100769.00;4974316;28;58438;-58
2021/06/30 07:51:03;;;;;;;;;6.50;6.50;;;;;15.74;71.84;100766.88;4974255;28;57351;-59
2021/06/30 07:53:28;;;;;;;;;6.50;6.50;;;;;15.78;71.58;100765.56;4973254;28;46609;-59
2021/06/30 07:55:54;;;;;;;;;7.25;7.25;;;;;15.83;70.95;100770.34;5030155;28;45628;-58
2021/06/30 07:58:20;;;;;;;;;8.25;5.50;;;;;15.88;71.14;100781.31;5016803;27;45916;-58
2021/06/30 08:00:47;;;;;;;;;6.75;6.50;;;;;15.93;70.63;100779.00;5029098;27;45460;-58
2021/06/30 08:03:12;;;;;;;;;6.75;6.75;;;;;15.98;70.80;100778.50;5011473;28;46306;-59
2021/06/30 08:05:37;;;;;;;;;9.25;6.25;;;;;16.02;70.78;100774.53;5028078;28;45252;-58
2021/06/30 08:08:03;;;;;;;;;7.75;6.50;;;;;16.05;70.81;100774.19;5009481;28;57230;-59
2021/06/30 08:10:28;;;;;;;;;9.75;7.00;;;;;16.08;70.33;100773.88;5013357;28;45215;-58
2021/06/30 08:12:54;;;;;;;;;9.50;6.75;;;;;16.12;70.30;100775.19;5002490;27;53509;-59
2021/06/30 08:15:19;;;;;;;;;7.00;5.75;;;;;16.14;70.20;100778.50;5016220;27;71214;-59
2021/06/30 08:17:45;;;;;;;;;6.00;6.00;;;;;16.15;69.80;100779.34;4993008;28;52306;-59
2021/06/30 08:20:11;;;;;;;;;8.50;8.50;;;;;16.20;69.84;100777.00;5012834;28;45567;-58
2021/06/30 08:22:37;;;;;;;;;8.50;8.50;;;;;16.24;70.09;100778.31;5002234;27;46071;-58
2021/06/30 08:25:02;;;;;;;;;8.75;6.25;;;;;16.27;70.04;100772.69;4989993;28;61514;-57
2021/06/30 08:27:28;;;;;;;;;11.00;7.50;;;;;16.34;70.50;100772.00;4998356;28;45373;-58
2021/06/30 08:29:54;;;;;;;;;10.50;8.50;;;;;16.38;70.36;100773.34;4985866;28;45473;-58
2021/06/30 08:32:21;;;;;;;;;8.25;8.25;;;;;16.42;70.50;100783.44;5019802;27;47081;-58
2021/06/30 08:34:47;;;;;;;;;8.50;7.75;;;;;16.49;69.86;100785.41;5001112;28;46418;-58
2021/06/30 08:37:12;;;;;;;;;9.50;7.75;;;;;16.53;69.60;100784.91;5025127;28;64191;-58
2021/06/30 08:39:38;;;;;;;;;9.75;8.00;;;;;16.57;68.95;100785.38;5014714;28;46130;-58
2021/06/30 08:42:04;;;;;;;;;8.00;8.00;;;;;16.61;68.84;100778.75;5028344;27;46049;-59
2021/06/30 08:44:29;;;;;;;;;8.00;8.00;;;;;16.65;68.61;100781.91;4989612;28;45524;-59
2021/06/30 08:46:56;;;;;;;;;6.00;6.00;;;;;16.68;68.25;100785.03;5008308;27;45361;-59
2021/06/30 08:49:24;;;;;;;;;8.00;6.00;;;;;16.72;68.52;100775.75;5035985;28;45499;-58
2021/06/30 08:51:51;;;;;;;;;8.25;6.75;;;;;16.77;67.64;100784.00;5031154;28;45457;-58
2021/06/30 08:54:16;;;;;;;;;6.00;6.00;;;;;16.83;67.22;100777.19;5016196;27;45442;-59
2021/06/30 08:56:42;;;;;;;;;10.00;8.00;;;;;16.89;66.81;100775.69;5024559;28;45424;-58
2021/06/30 08:59:07;;;;;;;;;10.50;7.00;;;;;16.95;66.23;100780.31;5034030;28;46552;-58
2021/06/30 09:01:33;;;;;;;;;9.00;8.25;;;;;17.02;66.87;100769.84;5023589;28;45300;-58
2021/06/30 09:03:59;;;;;;;;;9.00;6.50;;;;;17.10;67.05;100771.63;5024474;28;70884;-58
2021/06/30 09:06:25;;;;;;;;;8.00;7.00;;;;;17.18;66.11;100766.28;5052577;27;45525;-58
2021/06/30 09:08:50;;;;;;;;;9.00;6.50;;;;;17.26;66.06;100782.19;5052185;27;45454;-59
2021/06/30 09:11:19;;;;;;;;;7.33;6.00;;;;;17.34;64.78;100765.38;5000089;27;45469;-58
2021/06/30 09:13:47;;;;;;;;;6.00;6.00;;;;;17.39;64.37;100773.63;5044791;27;45583;-58
2021/06/30 09:16:13;;;;;;;;;8.00;6.75;;;;;17.47;64.26;100772.78;5025076;28;45375;-58
2021/06/30 09:18:39;;;;;;;;;9.75;8.00;;;;;17.54;64.12;100773.69;4998597;28;45390;-59
2021/06/30 09:21:24;;;;;;;;;6.00;6.00;;;;;17.60;63.92;100774.84;5025651;28;45554;-59
2021/06/30 09:24:06;;;;;;;;;12.75;8.00;;;;;17.63;63.71;100777.97;5047062;27;45841;-59
2021/06/30 09:26:33;;;;;;;;;7.00;7.00;;;;;17.64;62.73;100779.63;5046101;28;45498;-58
2021/06/30 09:29:05;;;;;;;;;9.25;8.00;;;;;17.64;63.17;100778.81;5035410;28;45547;-58
2021/06/30 09:31:31;;;;;;;;;9.25;8.25;;;;;17.67;63.46;100785.59;5034200;27;45420;-58
2021/06/30 09:33:57;;;;;;;;;8.00;8.00;;;;;17.67;62.78;100793.56;5031133;27;45976;-58
2021/06/30 09:36:31;;;;;;;;;11.25;8.25;;;;;17.68;62.58;100788.06;5012799;28;45837;-59
2021/06/30 09:39:10;;;;;;;;;7.25;7.00;;;;;17.70;62.42;100787.88;4994085;28;45526;-58
2021/06/30 09:41:38;;;;;;;;;13.00;9.00;;;;;17.72;62.64;100793.84;5008056;28;45493;-59
2021/06/30 09:44:04;;;;;;;;;8.00;7.00;;;;;17.74;62.62;100790.03;5014446;28;45969;-58
2021/06/30 09:46:29;;;;;;;;;9.25;6.50;;;;;17.78;62.85;100796.63;5017809;28;45479;-59
2021/06/30 09:48:56;;;;;;;;;9.75;9.00;;;;;17.82;62.73;100790.94;5002746;28;45377;-59
2021/06/30 09:51:21;;;;;;;;;8.50;7.50;;;;;17.83;63.21;100798.75;5026531;28;46727;-57
2021/06/30 09:53:47;;;;;;;;;10.75;9.50;;;;;17.86;62.48;100789.59;5006535;28;45559;-59
2021/06/30 09:56:12;;;;;;;;;11.25;8.75;;;;;17.89;62.44;100786.56;5008399;28;45506;-59
2021/06/30 09:58:37;;;;;;;;;9.75;8.25;;;;;17.92;62.52;100789.72;5033666;27;45457;-58
2021/06/30 10:01:19;;;;;;;;;10.50;8.00;;;;;17.94;62.31;100789.53;5028085;27;47161;-59
2021/06/30 10:03:45;;;;;;;;;0.00;0.00;;;;;17.97;62.01;100791.03;5021130;28;45435;-58
2021/06/30 10:06:30;;;;;;;;;9.00;9.00;;;;;18.00;62.31;100798.69;5011980;27;45576;-58
2021/06/30 10:08:56;;;;;;;;;8.00;8.00;;;;;18.03;62.24;100795.63;4996622;28;45502;-58
2021/06/30 10:11:22;;;;;;;;;10.25;9.00;;;;;18.05;62.36;100794.47;5014346;27;45407;-59
2021/06/30 10:13:48;;;;;;;;;10.00;8.75;;;;;18.09;62.72;100795.75;5036433;27;45516;-58
2021/06/30 10:16:16;;;;;;;;;9.25;8.00;;;;;18.11;62.63;100792.91;5033812;28;45445;-58
2021/06/30 10:18:42;;;;;;;;;10.00;8.00;;;;;18.15;62.53;100807.50;5015366;28;45212;-58
2021/06/30 10:21:07;;;;;;;;;9.75;8.00;;;;;18.19;62.80;100803.47;5005222;28;70109;-58
2021/06/30 10:23:32;;;;;;;;;9.25;7.25;;;;;18.23;63.75;100799.44;5000922;28;49394;-58
2021/06/30 10:25:58;;;;;;;;;9.00;7.75;;;;;18.27;63.84;100804.41;4999679;28;50503;-59
2021/06/30 10:28:23;;;;;;;;;7.50;7.25;;;;;18.29;63.79;100805.88;5004963;28;58788;-58
2021/06/30 10:30:51;;;;;;;;;12.50;9.00;;;;;18.31;63.95;100808.38;4993591;28;50593;-59
2021/06/30 10:33:34;;;;;;;;;10.25;9.00;;;;;18.32;63.95;100802.84;5000900;28;45555;-58
2021/06/30 10:36:00;;;;;;;;;24.50;21.50;;;;;18.35;63.28;100802.50;5001892;28;45417;-58
2021/06/30 10:38:47;;;;;;;;;10.25;9.00;;;;;18.37;62.92;100810.31;5006702;28;45445;-60
2021/06/30 10:41:42;;;;;;;;;11.50;8.50;;;;;18.38;62.52;100801.31;5008808;27;45631;-59
2021/06/30 10:44:11;;;;;;;;;9.50;8.50;;;;;18.41;62.37;100792.97;5016242;28;45997;-59
2021/06/30 10:46:37;;;;;;;;;8.00;6.75;;;;;18.52;62.71;100802.34;4999660;28;45255;-60
2021/06/30 10:49:30;;;;;;;;;8.75;8.75;;;;;18.60;61.18;100804.06;5014536;28;45285;-58
2021/06/30 10:51:55;;;;;;;;;10.25;9.00;;;;;18.66;60.32;100798.03;4998986;28;46379;-57
2021/06/30 10:54:32;;;;;;;;;10.00;8.75;;;;;18.69;60.56;100802.97;5005522;27;45444;-59
2021/06/30 10:57:20;;;;;;;;;8.75;8.25;;;;;18.71;60.71;100803.63;4992288;28;45455;-58
2021/06/30 11:00:01;;;;;;;;;10.75;8.50;;;;;18.75;60.52;100807.56;5021103;28;45483;-58
2021/06/30 11:02:31;;;;;;;;;12.00;9.75;;;;;18.77;61.14;100805.56;5013677;28;45488;-59
2021/06/30 11:05:12;;;;;;;;;9.25;8.50;;;;;18.81;60.18;100806.84;5019660;28;45321;-59
2021/06/30 11:07:37;;;;;;;;;8.75;8.00;;;;;18.83;60.07;100810.16;5035849;27;45537;-58
2021/06/30 11:10:21;;;;;;;;;9.25;9.25;;;;;18.87;60.13;100807.13;5031932;28;53733;-58
2021/06/30 11:12:50;;;;;;;;;7.75;7.75;;;;;18.91;60.13;100816.41;5024886;27;45690;-59
2021/06/30 11:15:38;;;;;;;;;9.25;8.00;;;;;18.95;60.10;100818.50;5004831;28;45794;-58
2021/06/30 11:18:13;;;;;;;;;8.25;8.25;;;;;18.97;59.71;100811.19;4995711;28;45441;-59